Time;durP1;ratioP1;P1;durP2;ratioP2;P2;SDS_P1;SDS_P2;PMS_P1;PMS_P2;Temp;Humidity;BMP_temperature;BMP_pressure;BME280_temperature;BME280_humidity;BME280_pressure;Samples;Min_cycle;Max_cycle;Signal;HPM_P1;HPM_P2
2021/05/24 00:00:20;;;;;;;3.28;1.45;;;;;;;12.05;61.46;100855.69;1040497;28;20049;-81
2021/05/24 00:00:51;;;;;;;5.10;1.20;;;;;;;12.06;61.35;100857.41;1036026;28;20053;-80
2021/05/24 00:01:24;;;;;;;3.05;1.50;;;;;;;12.16;61.03;100861.81;1037115;28;20530;-81
2021/05/24 00:01:55;;;;;;;2.95;1.52;;;;;;;12.05;61.42;100856.53;1041304;28;20132;-80
2021/05/24 00:02:27;;;;;;;3.67;1.45;;;;;;;12.22;60.18;100854.09;1036349;28;20076;-82
2021/05/24 00:03:03;;;;;;;5.32;1.40;;;;;;;12.19;60.32;100848.88;1037224;28;20513;-85
2021/05/24 00:03:35;;;;;;;2.50;1.33;;;;;;;12.20;61.05;100858.41;1037330;28;20053;-81
2021/05/24 00:04:06;;;;;;;3.30;1.30;;;;;;;12.14;60.86;100845.41;1041155;28;20057;-81
2021/05/24 00:04:38;;;;;;;3.67;1.23;;;;;;;12.21;60.30;100849.78;1044042;28;20045;-82
2021/05/24 00:05:16;;;;;;;3.45;1.30;;;;;;;12.15;60.90;100858.38;1044090;28;20052;-81
2021/05/24 00:05:47;;;;;;;2.22;1.23;;;;;;;12.15;60.93;100850.59;1041298;28;20053;-80
2021/05/24 00:06:19;;;;;;;4.50;1.40;;;;;;;12.15;61.38;100845.41;1039889;28;20140;-81
2021/05/24 00:06:50;;;;;;;5.65;1.33;;;;;;;12.21;60.42;100849.78;1037341;28;20184;-81
2021/05/24 00:07:22;;;;;;;5.43;1.77;;;;;;;12.20;60.56;100842.84;1043738;28;20086;-81
2021/05/24 00:07:54;;;;;;;2.75;1.63;;;;;;;12.18;60.75;100845.41;1044459;28;20057;-80
2021/05/24 00:08:26;;;;;;;3.13;0.90;;;;;;;12.22;60.74;100840.25;1048633;28;20135;-80
2021/05/24 00:08:57;;;;;;;1.60;1.20;;;;;;;12.15;61.16;100842.81;1048144;28;20064;-82
2021/05/24 00:09:29;;;;;;;4.40;1.55;;;;;;;12.20;60.51;100846.31;1043973;28;20067;-81
2021/05/24 00:10:07;;;;;;;1.77;1.02;;;;;;;12.15;61.07;100850.59;1039907;28;20041;-83
2021/05/24 00:10:40;;;;;;;3.45;1.27;;;;;;;12.19;61.02;100846.28;1037173;28;20169;-81
2021/05/24 00:11:12;;;;;;;2.10;1.27;;;;;;;12.12;61.04;100839.31;1037457;28;20054;-80
2021/05/24 00:11:43;;;;;;;5.10;1.33;;;;;;;12.11;61.69;100838.44;1037250;28;20101;-80
2021/05/24 00:12:25;;;;;;;3.10;1.42;;;;;;;12.12;61.27;100837.59;1035915;28;20132;-81
2021/05/24 00:13:03;;;;;;;2.30;1.17;;;;;;;12.14;61.52;100837.63;1037672;28;20136;-81
2021/05/24 00:13:44;;;;;;;1.83;1.30;;;;;;;12.15;61.60;100840.22;1042666;28;20056;-80
2021/05/24 00:14:20;;;;;;;3.00;1.35;;;;;;;12.19;61.22;100841.09;1040013;28;20081;-81
2021/05/24 00:14:53;;;;;;;2.20;1.00;;;;;;;12.15;61.33;100844.53;1043252;28;20435;-81
2021/05/24 00:15:30;;;;;;;1.90;1.13;;;;;;;12.19;61.10;100836.78;1044025;28;20049;-80
2021/05/24 00:16:07;;;;;;;2.25;1.27;;;;;;;12.14;61.30;100835.88;1046001;28;20053;-81
2021/05/24 00:16:39;;;;;;;4.10;1.58;;;;;;;12.13;61.21;100835.84;1043970;28;20079;-86
2021/05/24 00:17:11;;;;;;;4.50;1.17;;;;;;;12.20;61.10;100837.66;1039955;28;20068;-81
2021/05/24 00:17:42;;;;;;;1.10;0.90;;;;;;;12.20;61.07;100833.34;1040014;28;20056;-81
2021/05/24 00:18:19;;;;;;;3.33;1.17;;;;;;;12.18;61.59;100829.84;1036201;28;20053;-80
2021/05/24 00:18:52;;;;;;;2.35;1.20;;;;;;;12.14;61.38;100828.13;1037060;28;20046;-81
2021/05/24 00:19:23;;;;;;;1.40;1.20;;;;;;;12.16;61.10;100823.78;1041230;28;20068;-81
2021/05/24 00:19:56;;;;;;;3.15;1.55;;;;;;;12.20;60.97;100824.69;1045530;28;20049;-82
2021/05/24 00:20:30;;;;;;;1.40;0.88;;;;;;;12.13;61.77;100826.34;1048760;28;20065;-82
2021/05/24 00:21:02;;;;;;;2.70;1.05;;;;;;;12.09;61.69;100813.38;1048084;28;20062;-81
2021/05/24 00:21:34;;;;;;;1.48;1.20;;;;;;;12.09;61.83;100818.56;1044091;28;20060;-80
2021/05/24 00:22:06;;;;;;;2.20;1.20;;;;;;;12.09;61.61;100827.19;1043986;28;20056;-80
2021/05/24 00:22:37;;;;;;;4.35;1.45;;;;;;;12.10;61.56;100820.28;1043502;28;20055;-81
2021/05/24 00:23:09;;;;;;;1.40;1.20;;;;;;;12.13;61.91;100820.28;1045039;28;20098;-80
2021/05/24 00:23:40;;;;;;;2.95;1.27;;;;;;;12.13;62.24;100823.75;1047999;28;20056;-80
2021/05/24 00:24:12;;;;;;;3.05;0.95;;;;;;;12.12;61.69;100814.25;1044490;28;20045;-80
2021/05/24 00:24:44;;;;;;;2.13;1.25;;;;;;;12.14;61.99;100822.94;1044522;28;20381;-80
2021/05/24 00:25:16;;;;;;;1.85;1.23;;;;;;;12.14;61.76;100822.06;1040945;28;20073;-80
2021/05/24 00:25:48;;;;;;;3.85;1.13;;;;;;;12.15;62.06;100818.59;1041500;28;20048;-80
2021/05/24 00:26:20;;;;;;;4.38;1.00;;;;;;;12.17;61.35;100824.66;1041559;28;20180;-82
2021/05/24 00:26:51;;;;;;;1.33;1.02;;;;;;;12.23;61.74;100816.91;1045123;28;20052;-83
2021/05/24 00:27:23;;;;;;;1.23;1.10;;;;;;;12.19;61.34;100820.34;1044819;28;20064;-82
2021/05/24 00:27:55;;;;;;;3.72;1.33;;;;;;;12.15;61.58;100811.69;1041289;28;20443;-80
2021/05/24 00:28:27;;;;;;;3.92;1.45;;;;;;;12.10;61.94;100800.41;1049085;28;20044;-80
2021/05/24 00:28:59;;;;;;;2.75;1.23;;;;;;;12.18;61.44;100818.63;1044933;28;20179;-81
2021/05/24 00:29:30;;;;;;;4.13;1.30;;;;;;;12.16;61.66;100817.75;1041506;28;20124;-79
2021/05/24 00:30:04;;;;;;;2.15;1.00;;;;;;;12.08;62.35;100807.31;1040653;28;20054;-80
2021/05/24 00:30:36;;;;;;;1.95;1.42;;;;;;;12.07;62.69;100815.06;1037528;28;20061;-80
2021/05/24 00:31:07;;;;;;;1.88;1.10;;;;;;;12.08;62.21;100821.97;1037498;28;20053;-81
2021/05/24 00:31:39;;;;;;;2.35;1.30;;;;;;;12.08;62.28;100817.69;1037483;28;20195;-80
2021/05/24 00:32:10;;;;;;;3.25;1.20;;;;;;;12.10;62.17;100805.59;1041220;28;20503;-80
2021/05/24 00:32:42;;;;;;;2.45;1.00;;;;;;;12.08;62.26;100803.81;1045403;28;20053;-81
2021/05/24 00:33:14;;;;;;;1.65;1.15;;;;;;;12.10;62.57;100807.31;1049119;28;20061;-81
2021/05/24 00:33:45;;;;;;;1.70;1.00;;;;;;;12.18;61.62;100808.22;1053310;28;20056;-80
2021/05/24 00:34:17;;;;;;;1.63;1.08;;;;;;;12.17;61.73;100798.72;1048869;28;20511;-82
2021/05/24 00:34:49;;;;;;;2.53;1.17;;;;;;;12.22;61.08;100799.63;1044891;28;20053;-82
2021/05/24 00:35:20;;;;;;;3.05;1.50;;;;;;;12.14;61.83;100797.00;1044922;28;20102;-80
2021/05/24 00:35:52;;;;;;;3.20;1.00;;;;;;;12.25;61.05;100793.56;1045227;28;20088;-85
2021/05/24 00:36:24;;;;;;;2.05;1.10;;;;;;;12.24;61.14;100797.91;1044710;28;20052;-85
2021/05/24 00:36:55;;;;;;;0.98;0.90;;;;;;;12.27;60.96;100797.06;1044998;28;20052;-82
2021/05/24 00:37:27;;;;;;;2.97;1.38;;;;;;;12.24;61.14;100791.84;1044797;28;20045;-81
2021/05/24 00:38:03;;;;;;;1.85;0.95;;;;;;;12.22;61.31;100789.25;1044910;28;20052;-81
2021/05/24 00:38:34;;;;;;;1.92;1.10;;;;;;;12.23;61.80;100795.31;1040718;28;20501;-80
2021/05/24 00:39:09;;;;;;;3.88;1.08;;;;;;;12.17;61.52;100790.94;1037576;28;20058;-83
2021/05/24 00:39:41;;;;;;;3.55;1.10;;;;;;;12.22;61.21;100785.78;1044395;28;20534;-82
2021/05/24 00:40:13;;;;;;;2.25;0.73;;;;;;;12.21;61.56;100784.94;1045626;28;20078;-81
2021/05/24 00:40:44;;;;;;;5.05;1.33;;;;;;;12.23;61.74;100795.31;1044764;28;20182;-81
2021/05/24 00:41:18;;;;;;;2.13;1.20;;;;;;;12.19;62.23;100795.28;1048218;28;20547;-80
2021/05/24 00:41:50;;;;;;;4.95;1.33;;;;;;;12.16;62.25;100795.25;1044783;28;20045;-80
2021/05/24 00:42:22;;;;;;;2.80;1.20;;;;;;;12.20;62.01;100790.97;1041560;28;20108;-80
2021/05/24 00:42:55;;;;;;;4.72;0.90;;;;;;;12.20;61.61;100778.88;1044193;28;20051;-81
2021/05/24 00:43:26;;;;;;;3.58;1.08;;;;;;;12.24;61.30;100784.94;1045596;28;20507;-80
2021/05/24 00:43:58;;;;;;;1.52;1.27;;;;;;;12.23;61.78;100787.53;1044450;28;20098;-80
2021/05/24 00:44:29;;;;;;;0.90;0.70;;;;;;;12.21;62.09;100784.94;1040639;28;20163;-79
2021/05/24 00:45:04;;;;;;;4.07;1.15;;;;;;;12.17;62.37;100789.22;1040892;28;20117;-81
2021/05/24 00:45:36;;;;;;;3.28;1.55;;;;;;;12.22;62.17;100783.19;1041705;28;20519;-81
2021/05/24 00:46:11;;;;;;;3.80;1.20;;;;;;;12.24;61.66;100782.34;1044350;28;20495;-81
2021/05/24 00:46:43;;;;;;;2.83;1.27;;;;;;;12.26;61.89;100790.16;1045983;28;20049;-80
2021/05/24 00:47:14;;;;;;;2.38;1.33;;;;;;;12.27;62.20;100784.97;1040659;28;20060;-81
2021/05/24 00:47:46;;;;;;;1.55;1.00;;;;;;;12.17;62.76;100778.84;1040309;28;20049;-80
2021/05/24 00:48:18;;;;;;;2.80;1.02;;;;;;;12.12;63.14;100783.13;1040813;28;20187;-80
2021/05/24 00:48:49;;;;;;;1.90;1.10;;;;;;;12.07;62.96;100782.22;1036931;28;20056;-80
2021/05/24 00:49:25;;;;;;;2.40;1.05;;;;;;;12.11;62.91;100783.13;1044332;28;20684;-80
2021/05/24 00:49:56;;;;;;;1.95;1.23;;;;;;;12.12;62.73;100777.06;1040754;28;20144;-80
2021/05/24 00:50:28;;;;;;;7.32;1.80;;;;;;;12.15;62.87;100772.78;1041747;28;20080;-80
2021/05/24 00:50:59;;;;;;;1.70;1.08;;;;;;;12.11;62.49;100765.84;1041423;28;20050;-82
2021/05/24 00:51:32;;;;;;;13.02;1.45;;;;;;;12.22;62.38;100775.41;1041036;28;20057;-80
2021/05/24 00:52:06;;;;;;;2.47;1.08;;;;;;;12.24;62.45;100781.47;1040411;28;20064;-80
2021/05/24 00:52:39;;;;;;;0.80;0.80;;;;;;;12.17;62.90;100778.84;1040843;28;20205;-80
2021/05/24 00:53:11;;;;;;;1.75;1.08;;;;;;;12.23;61.97;100766.78;1041997;28;20094;-81
2021/05/24 00:53:44;;;;;;;3.17;1.17;;;;;;;12.29;61.75;100774.59;1044722;28;20102;-84
2021/05/24 00:54:15;;;;;;;1.20;0.93;;;;;;;12.31;61.44;100770.28;1043776;28;20118;-80
2021/05/24 00:54:47;;;;;;;4.40;1.20;;;;;;;12.22;62.19;100768.50;1040512;28;20524;-80
2021/05/24 00:55:19;;;;;;;3.90;1.20;;;;;;;12.27;61.96;100771.13;1037591;28;20061;-80
2021/05/24 00:55:50;;;;;;;4.20;1.13;;;;;;;12.25;62.41;100765.06;1037585;28;20137;-81
2021/05/24 00:56:23;;;;;;;4.15;1.63;;;;;;;12.27;62.07;100768.53;1033108;28;20105;-80
2021/05/24 00:56:58;;;;;;;3.75;1.20;;;;;;;12.24;62.43;100768.50;1037224;28;20054;-80
2021/05/24 00:57:30;;;;;;;2.10;1.35;;;;;;;12.28;62.01;100780.66;1040861;28;20053;-81
2021/05/24 00:58:04;;;;;;;2.38;0.90;;;;;;;12.20;62.85;100770.22;1040767;28;20049;-82
2021/05/24 00:58:36;;;;;;;1.65;0.88;;;;;;;12.22;62.26;100767.63;1040719;28;20049;-80
2021/05/24 00:59:08;;;;;;;2.45;0.70;;;;;;;12.24;62.62;100769.38;1041382;28;20136;-82
2021/05/24 00:59:39;;;;;;;2.05;1.15;;;;;;;12.30;62.05;100766.81;1041403;28;20110;-81
2021/05/24 01:00:25;;;;;;;2.45;1.60;;;;;;;12.25;62.14;100759.84;1041267;28;20049;-81
2021/05/24 01:00:56;;;;;;;2.13;1.02;;;;;;;12.25;62.39;100771.09;1044798;28;20072;-80
2021/05/24 01:01:30;;;;;;;2.70;1.00;;;;;;;12.34;61.50;100768.59;1042937;28;20067;-81
2021/05/24 01:02:03;;;;;;;2.17;1.02;;;;;;;12.26;62.18;100753.84;1047274;28;20060;-82
2021/05/24 01:02:35;;;;;;;5.45;1.30;;;;;;;12.32;61.72;100765.13;1044274;28;20092;-81
2021/05/24 01:03:09;;;;;;;4.95;1.17;;;;;;;12.30;62.04;100771.13;1040735;28;20064;-81
2021/05/24 01:03:41;;;;;;;3.00;0.95;;;;;;;12.26;62.27;100767.69;1039015;28;20560;-79
2021/05/24 01:04:14;;;;;;;2.80;1.42;;;;;;;12.24;62.68;100771.09;1041470;28;20054;-80
2021/05/24 01:04:46;;;;;;;2.22;1.33;;;;;;;12.30;61.99;100753.84;1045936;28;20163;-83
2021/05/24 01:05:18;;;;;;;3.53;1.33;;;;;;;12.35;61.86;100772.03;1044793;28;20124;-80
2021/05/24 01:05:49;;;;;;;2.28;0.93;;;;;;;12.29;62.21;100764.22;1045292;28;20052;-80
2021/05/24 01:06:22;;;;;;;1.58;1.30;;;;;;;12.24;62.64;100764.19;1048879;28;20139;-80
2021/05/24 01:06:56;;;;;;;1.67;1.13;;;;;;;12.27;62.23;100774.59;1044706;28;20048;-81
2021/05/24 01:07:27;;;;;;;2.67;1.17;;;;;;;12.22;62.67;100765.03;1040620;28;20428;-80
2021/05/24 01:08:02;;;;;;;3.38;1.50;;;;;;;12.27;62.18;100761.63;1037394;28;20076;-79
2021/05/24 01:08:33;;;;;;;4.78;1.15;;;;;;;12.19;63.08;100763.28;1041827;28;20164;-80
2021/05/24 01:09:05;;;;;;;4.25;1.02;;;;;;;12.28;62.16;100759.91;1041380;28;20473;-80
2021/05/24 01:09:37;;;;;;;2.65;1.40;;;;;;;12.26;62.58;100759.91;1040492;28;20041;-79
2021/05/24 01:10:09;;;;;;;1.15;0.90;;;;;;;12.26;62.20;100762.50;1041010;28;20588;-81
2021/05/24 01:10:42;;;;;;;4.50;1.13;;;;;;;12.22;62.83;100752.06;1045256;28;20191;-80
2021/05/24 01:11:13;;;;;;;1.27;0.82;;;;;;;12.15;62.83;100752.03;1048889;28;20049;-80
2021/05/24 01:11:48;;;;;;;5.03;1.15;;;;;;;12.21;62.73;100759.00;1044490;28;20047;-81
2021/05/24 01:12:19;;;;;;;2.00;0.98;;;;;;;12.19;62.44;100753.78;1042667;28;20045;-82
2021/05/24 01:12:51;;;;;;;4.93;1.83;;;;;;;12.29;62.22;100752.13;1040485;28;20052;-80
2021/05/24 01:13:24;;;;;;;3.45;1.40;;;;;;;12.35;61.98;100761.66;1038470;28;20521;-80
2021/05/24 01:13:56;;;;;;;2.00;1.25;;;;;;;12.35;61.76;100746.09;1044547;28;20049;-82
2021/05/24 01:14:28;;;;;;;2.05;0.98;;;;;;;12.29;62.10;100749.53;1045368;28;20113;-79
2021/05/24 01:15:00;;;;;;;3.00;1.23;;;;;;;12.33;61.82;100746.09;1045525;28;20574;-79
2021/05/24 01:15:32;;;;;;;0.95;0.90;;;;;;;12.28;62.07;100742.59;1044724;28;20060;-80
2021/05/24 01:16:04;;;;;;;2.70;1.00;;;;;;;12.33;61.89;100751.28;1044611;28;20053;-80
2021/05/24 01:16:39;;;;;;;2.38;1.02;;;;;;;12.36;61.82;100746.09;1045273;28;20167;-82
2021/05/24 01:17:11;;;;;;;1.85;0.88;;;;;;;12.35;61.58;100739.19;1048794;28;20557;-81
2021/05/24 01:17:43;;;;;;;3.22;1.02;;;;;;;12.32;61.73;100738.31;1048783;28;20175;-79
2021/05/24 01:18:15;;;;;;;2.35;1.00;;;;;;;12.31;62.00;100736.56;1045423;28;20417;-82
2021/05/24 01:18:46;;;;;;;1.33;0.95;;;;;;;12.31;62.08;100736.56;1044762;28;20059;-80
2021/05/24 01:19:20;;;;;;;3.13;1.20;;;;;;;12.27;62.19;100733.09;1044368;28;20071;-82
2021/05/24 01:19:51;;;;;;;6.63;1.48;;;;;;;12.26;62.38;100733.09;1045181;28;20057;-80
2021/05/24 01:20:26;;;;;;;1.80;1.10;;;;;;;12.25;62.38;100732.19;1048824;28;20528;-79
2021/05/24 01:20:58;;;;;;;3.42;1.42;;;;;;;12.26;62.59;100731.38;1045892;28;20048;-79
2021/05/24 01:21:29;;;;;;;1.40;1.00;;;;;;;12.19;63.13;100739.94;1048733;28;20060;-79
2021/05/24 01:22:01;;;;;;;3.78;1.10;;;;;;;12.20;62.87;100739.97;1044510;28;20171;-78
2021/05/24 01:22:34;;;;;;;2.10;0.80;;;;;;;12.27;62.51;100740.88;1044975;28;20110;-79
2021/05/24 01:23:44;;;;;;;5.78;1.60;;;;;;;12.28;62.55;100733.97;1049468;28;20175;-79
2021/05/24 01:24:20;;;;;;;2.42;0.98;;;;;;;12.23;62.67;100731.31;1053237;28;20048;-80
2021/05/24 01:24:52;;;;;;;2.75;0.98;;;;;;;12.27;62.77;100737.41;1048842;28;20125;-81
2021/05/24 01:25:25;;;;;;;3.22;1.00;;;;;;;12.25;63.00;100726.13;1044615;28;20060;-80
2021/05/24 01:25:57;;;;;;;1.88;0.98;;;;;;;12.26;62.77;100735.69;1044734;28;20071;-79
2021/05/24 01:26:31;;;;;;;1.73;0.70;;;;;;;12.24;63.01;100730.47;1045308;28;20098;-79
2021/05/24 01:27:03;;;;;;;2.88;1.05;;;;;;;12.26;62.61;100730.50;1049932;28;20044;-81
2021/05/24 01:27:36;;;;;;;2.28;1.38;;;;;;;12.25;62.77;100726.13;1053225;28;20082;-79
2021/05/24 01:28:10;;;;;;;4.85;1.30;;;;;;;12.27;62.75;100727.03;1053252;28;20048;-79
2021/05/24 01:28:45;;;;;;;4.57;1.33;;;;;;;12.27;62.81;100733.09;1048761;28;20186;-79
2021/05/24 01:29:21;;;;;;;1.98;1.17;;;;;;;12.28;62.97;100731.38;1048876;28;20059;-79
2021/05/24 01:29:52;;;;;;;3.03;0.95;;;;;;;12.30;62.77;100727.03;1048846;28;20055;-79
2021/05/24 01:30:24;;;;;;;2.90;0.80;;;;;;;12.28;62.92;100728.78;1046160;28;20072;-79
2021/05/24 01:30:56;;;;;;;1.40;1.00;;;;;;;12.21;63.52;100725.28;1044569;28;20052;-79
2021/05/24 01:31:27;;;;;;;2.33;0.95;;;;;;;12.20;63.36;100728.72;1040425;28;20066;-79
2021/05/24 01:31:59;;;;;;;1.67;0.88;;;;;;;12.24;63.10;100722.69;1036961;28;20076;-79
2021/05/24 01:32:31;;;;;;;2.13;0.82;;;;;;;12.29;62.84;100717.53;1033383;28;20053;-80
2021/05/24 01:33:04;;;;;;;1.17;0.88;;;;;;;12.29;62.69;100727.91;1034970;28;20103;-80
2021/05/24 01:33:37;;;;;;;5.20;1.15;;;;;;;12.29;62.75;100721.00;1041198;28;20057;-79
2021/05/24 01:34:10;;;;;;;2.75;1.20;;;;;;;12.33;62.60;100717.56;1041249;28;20049;-80
2021/05/24 01:34:44;;;;;;;1.02;0.93;;;;;;;12.31;62.94;100718.38;1044479;28;20106;-79
2021/05/24 01:35:17;;;;;;;1.48;0.93;;;;;;;12.34;62.32;100715.84;1044365;28;20053;-84
2021/05/24 01:35:49;;;;;;;3.80;1.48;;;;;;;12.33;62.50;100716.69;1043949;28;20061;-81
2021/05/24 01:36:21;;;;;;;1.92;0.98;;;;;;;12.28;62.95;100719.25;1045168;28;20048;-80
2021/05/24 01:36:53;;;;;;;4.82;1.40;;;;;;;12.27;62.92;100707.16;1041243;28;20053;-80
2021/05/24 01:37:24;;;;;;;2.47;1.20;;;;;;;12.33;62.63;100714.09;1040323;28;20112;-80
2021/05/24 01:37:56;;;;;;;3.40;0.82;;;;;;;12.30;62.98;100708.88;1038960;28;20057;-79
2021/05/24 01:38:30;;;;;;;2.35;0.90;;;;;;;12.22;63.46;100706.25;1036936;28;20136;-81
2021/05/24 01:39:04;;;;;;;2.72;0.75;;;;;;;12.22;63.37;100698.47;1035163;28;20054;-79
2021/05/24 01:39:36;;;;;;;2.75;0.80;;;;;;;12.19;63.61;100708.81;1040142;28;20058;-79
2021/05/24 01:40:08;;;;;;;1.20;0.98;;;;;;;12.18;63.53;100707.94;1042613;28;20075;-79
2021/05/24 01:40:43;;;;;;;1.38;1.00;;;;;;;12.14;64.07;100710.53;1048732;28;20134;-79
2021/05/24 01:41:15;;;;;;;2.78;0.98;;;;;;;12.18;63.80;100701.91;1046011;28;20068;-79
2021/05/24 01:41:48;;;;;;;1.88;0.90;;;;;;;12.08;64.39;100698.41;1044580;28;20064;-81
2021/05/24 01:42:20;;;;;;;1.38;1.00;;;;;;;12.18;63.37;100696.72;1043750;28;20053;-80
2021/05/24 01:42:56;;;;;;;3.17;0.80;;;;;;;12.17;64.05;100703.63;1037911;28;20053;-79
2021/05/24 01:43:28;;;;;;;2.47;0.88;;;;;;;12.17;63.88;100708.81;1038605;28;20056;-79
2021/05/24 01:44:00;;;;;;;6.07;1.15;;;;;;;12.22;63.62;100706.25;1040505;28;20106;-79
2021/05/24 01:44:36;;;;;;;3.45;1.13;;;;;;;12.21;63.97;100709.72;1042379;28;20421;-80
2021/05/24 01:45:08;;;;;;;1.38;1.13;;;;;;;12.18;63.83;100700.16;1045709;28;20433;-79
2021/05/24 01:45:40;;;;;;;1.67;1.27;;;;;;;12.15;64.05;100705.34;1049479;28;20052;-79
2021/05/24 01:46:12;;;;;;;0.80;0.80;;;;;;;12.19;63.77;100712.28;1048523;28;20048;-79
2021/05/24 01:46:43;;;;;;;1.80;1.00;;;;;;;12.18;63.82;100712.28;1044573;28;20049;-79
2021/05/24 01:47:15;;;;;;;5.85;1.23;;;;;;;12.23;63.41;100705.41;1040443;28;20144;-79
2021/05/24 01:47:47;;;;;;;5.45;1.13;;;;;;;12.23;63.45;100701.94;1040072;28;20062;-80
2021/05/24 01:48:18;;;;;;;2.85;1.35;;;;;;;12.24;63.55;100703.66;1044940;28;20095;-80
2021/05/24 01:48:50;;;;;;;2.03;1.27;;;;;;;12.20;63.64;100705.41;1048808;28;20388;-80
2021/05/24 01:49:25;;;;;;;1.98;0.77;;;;;;;12.24;63.59;100698.47;1044403;28;20051;-79
2021/05/24 01:49:56;;;;;;;2.15;1.00;;;;;;;12.15;63.65;100692.41;1041115;28;20045;-82
2021/05/24 01:50:28;;;;;;;2.17;1.20;;;;;;;12.24;63.47;100701.94;1044769;28;20080;-80
2021/05/24 01:51:00;;;;;;;2.90;0.90;;;;;;;12.30;62.99;100706.28;1041205;28;20076;-80
2021/05/24 01:51:32;;;;;;;1.33;0.80;;;;;;;12.26;63.67;100700.25;1040427;28;20057;-80
2021/05/24 01:52:06;;;;;;;2.00;0.93;;;;;;;12.22;63.53;100695.88;1036240;28;20065;-79
2021/05/24 01:52:37;;;;;;;3.22;1.17;;;;;;;12.16;64.15;100690.66;1040872;28;20089;-79
2021/05/24 01:53:09;;;;;;;2.17;1.20;;;;;;;12.15;64.21;100696.72;1040497;28;20228;-80
2021/05/24 01:53:40;;;;;;;1.80;1.20;;;;;;;12.21;63.74;100699.34;1037121;28;20046;-80
2021/05/24 01:54:13;;;;;;;1.95;0.95;;;;;;;12.15;64.33;100694.13;1038117;28;20050;-79
2021/05/24 01:54:46;;;;;;;2.05;1.13;;;;;;;12.12;64.21;100691.50;1041248;28;20085;-81
2021/05/24 01:55:18;;;;;;;2.90;0.80;;;;;;;12.12;64.36;100687.16;1044567;28;20056;-80
2021/05/24 01:55:51;;;;;;;2.90;1.10;;;;;;;12.09;64.90;100691.50;1047299;28;20132;-79
2021/05/24 01:56:22;;;;;;;2.80;0.70;;;;;;;12.10;64.14;100683.72;1045205;28;20048;-79
2021/05/24 01:56:54;;;;;;;3.00;1.20;;;;;;;12.13;64.48;100685.44;1040409;28;20053;-79
2021/05/24 01:57:25;;;;;;;2.35;0.95;;;;;;;12.13;64.29;100683.72;1042102;28;20099;-79
2021/05/24 01:57:57;;;;;;;1.60;0.80;;;;;;;12.22;64.00;100697.63;1044537;28;20650;-80
2021/05/24 01:58:30;;;;;;;3.22;0.88;;;;;;;12.17;64.20;100693.25;1044499;28;20057;-79
2021/05/24 01:59:03;;;;;;;1.55;0.70;;;;;;;12.17;64.29;100690.66;1041969;28;20069;-80
2021/05/24 01:59:36;;;;;;;1.15;0.98;;;;;;;12.19;63.82;100685.47;1045252;28;20090;-79
2021/05/24 02:00:21;;;;;;;1.85;0.95;;;;;;;12.25;63.83;100700.22;1048559;28;20062;-81
2021/05/24 02:01:00;;;;;;;3.60;1.20;;;;;;;12.14;64.34;100682.03;1047143;28;20167;-80
2021/05/24 02:01:31;;;;;;;2.60;0.90;;;;;;;12.17;64.33;100694.97;1044576;28;20059;-80
2021/05/24 02:02:05;;;;;;;2.83;1.17;;;;;;;12.15;64.51;100689.81;1044585;28;20154;-80
2021/05/24 02:02:41;;;;;;;1.15;1.00;;;;;;;12.15;64.13;100689.81;1044236;28;20057;-79
2021/05/24 02:03:13;;;;;;;2.58;1.00;;;;;;;12.17;63.82;100685.47;1040464;28;20424;-80
2021/05/24 02:03:46;;;;;;;1.58;0.90;;;;;;;12.16;64.33;100682.88;1036519;28;20077;-79
2021/05/24 02:04:18;;;;;;;2.25;0.95;;;;;;;12.24;63.93;100691.56;1041605;28;20053;-80
2021/05/24 02:04:49;;;;;;;3.17;1.35;;;;;;;12.20;63.81;100684.66;1041071;28;20045;-81
2021/05/24 02:05:24;;;;;;;2.17;0.75;;;;;;;12.19;63.94;100675.97;1044601;28;20057;-78
2021/05/24 02:05:55;;;;;;;1.02;0.70;;;;;;;12.25;63.70;100680.31;1048729;28;20052;-83
2021/05/24 02:06:27;;;;;;;1.88;1.30;;;;;;;12.24;64.01;100694.16;1044534;28;20061;-79
2021/05/24 02:07:04;;;;;;;2.30;0.50;;;;;;;12.22;64.10;100688.09;1045132;28;20049;-80
2021/05/24 02:07:40;;;;;;;2.83;1.17;;;;;;;12.17;64.63;100684.63;1044473;28;20056;-79
2021/05/24 02:08:14;;;;;;;3.97;1.35;;;;;;;12.14;64.44;100684.63;1046153;28;20132;-79
2021/05/24 02:08:48;;;;;;;3.90;1.05;;;;;;;12.14;64.45;100682.03;1044064;28;20053;-79
2021/05/24 02:09:20;;;;;;;3.90;0.80;;;;;;;12.11;64.71;100689.75;1040432;28;20106;-79
2021/05/24 02:09:51;;;;;;;4.80;1.48;;;;;;;12.15;64.57;100689.81;1037431;28;20060;-79
2021/05/24 02:10:29;;;;;;;2.65;1.13;;;;;;;12.22;63.88;100690.69;1041040;28;20196;-80
2021/05/24 02:11:03;;;;;;;2.35;0.95;;;;;;;12.17;64.39;100682.03;1044566;28;20053;-79
2021/05/24 02:11:35;;;;;;;5.25;1.00;;;;;;;12.15;64.15;100676.84;1042107;28;20068;-80
2021/05/24 02:12:07;;;;;;;2.45;1.00;;;;;;;12.14;64.58;100689.81;1042575;28;20386;-81
2021/05/24 02:12:39;;;;;;;2.03;1.08;;;;;;;12.10;64.69;100681.13;1040031;28;20060;-78
2021/05/24 02:13:11;;;;;;;3.30;1.40;;;;;;;12.12;64.58;100686.31;1039728;28;20056;-79
2021/05/24 02:13:46;;;;;;;2.47;0.88;;;;;;;12.08;65.16;100687.13;1043074;28;20053;-79
2021/05/24 02:14:18;;;;;;;2.50;0.85;;;;;;;12.04;65.51;100685.41;1044563;28;20049;-80
2021/05/24 02:14:52;;;;;;;1.88;1.00;;;;;;;12.12;64.52;100691.50;1044336;28;20136;-80
2021/05/24 02:15:32;;;;;;;1.73;0.90;;;;;;;12.13;64.73;100686.31;1045611;28;20120;-82
2021/05/24 02:16:04;;;;;;;4.25;2.05;;;;;;;12.14;64.50;100690.66;1046536;28;20081;-80
2021/05/24 02:16:45;;;;;;;1.20;0.85;;;;;;;12.19;64.20;100701.03;1044453;28;20068;-80
2021/05/24 02:17:16;;;;;;;3.70;1.38;;;;;;;12.15;64.41;100694.97;1044453;28;20064;-79
2021/05/24 02:17:48;;;;;;;2.30;0.70;;;;;;;12.18;64.19;100689.81;1042209;28;20050;-79
2021/05/24 02:18:22;;;;;;;2.72;0.80;;;;;;;12.15;64.37;100684.63;1040235;28;20071;-83
2021/05/24 02:18:54;;;;;;;3.78;1.02;;;;;;;12.16;64.51;100681.16;1036901;28;20044;-81
2021/05/24 02:19:25;;;;;;;4.47;1.02;;;;;;;12.08;65.07;100679.34;1040326;28;20608;-80
2021/05/24 02:19:57;;;;;;;1.33;0.80;;;;;;;12.09;65.12;100688.91;1040536;28;20060;-79
2021/05/24 02:20:32;;;;;;;3.30;0.98;;;;;;;12.14;64.65;100693.25;1040965;28;20068;-80
2021/05/24 02:21:06;;;;;;;3.30;0.90;;;;;;;12.13;64.44;100691.50;1040305;28;20409;-80
2021/05/24 02:21:39;;;;;;;0.93;0.85;;;;;;;12.23;63.90;100689.81;1041048;28;20471;-82
2021/05/24 02:22:11;;;;;;;1.63;1.00;;;;;;;12.15;64.64;100683.75;1045929;28;20078;-82
2021/05/24 02:22:43;;;;;;;0.95;0.68;;;;;;;12.17;64.48;100689.81;1045886;28;20052;-80
2021/05/24 02:23:16;;;;;;;3.85;1.17;;;;;;;12.10;65.10;100691.50;1044686;28;20052;-79
2021/05/24 02:23:48;;;;;;;1.88;0.88;;;;;;;12.13;64.73;100683.72;1048634;28;20051;-79
2021/05/24 02:24:19;;;;;;;1.65;0.82;;;;;;;12.10;64.57;100681.13;1048660;28;20045;-79
2021/05/24 02:24:51;;;;;;;4.18;0.95;;;;;;;12.08;65.45;100674.19;1044962;28;20045;-78
2021/05/24 02:25:24;;;;;;;3.08;1.05;;;;;;;12.02;65.39;100675.00;1048186;28;20060;-82
2021/05/24 02:25:56;;;;;;;2.83;1.00;;;;;;;12.06;65.13;100673.31;1048653;28;20084;-77
2021/05/24 02:26:27;;;;;;;1.23;0.70;;;;;;;12.12;64.42;100674.22;1044509;28;20087;-79
2021/05/24 02:26:59;;;;;;;3.13;1.00;;;;;;;12.13;64.50;100675.06;1041119;28;20049;-80
2021/05/24 02:27:31;;;;;;;5.57;1.00;;;;;;;12.06;65.19;100675.91;1044414;28;20108;-81
2021/05/24 02:28:05;;;;;;;1.50;1.08;;;;;;;12.11;64.55;100680.25;1040494;28;20598;-80
2021/05/24 02:28:37;;;;;;;2.17;1.15;;;;;;;12.16;64.83;100680.28;1041268;28;20412;-79
2021/05/24 02:29:10;;;;;;;2.53;1.23;;;;;;;12.12;64.63;100678.53;1040368;28;20049;-82
2021/05/24 02:29:44;;;;;;;1.13;0.80;;;;;;;12.17;64.72;100676.84;1036162;28;20073;-80
2021/05/24 02:30:18;;;;;;;2.97;1.10;;;;;;;12.11;64.89;100680.25;1033248;28;20080;-80
2021/05/24 02:30:50;;;;;;;2.55;0.90;;;;;;;12.11;64.93;100669.88;1037647;28;20144;-83
2021/05/24 02:31:22;;;;;;;2.00;0.80;;;;;;;12.07;64.90;100668.13;1041807;28;20049;-80
2021/05/24 02:31:53;;;;;;;5.55;1.05;;;;;;;12.08;65.38;100682.84;1048453;28;20044;-81
2021/05/24 02:32:25;;;;;;;1.65;1.17;;;;;;;12.03;65.61;100673.31;1049395;28;20053;-81
2021/05/24 02:32:57;;;;;;;3.00;1.15;;;;;;;12.04;65.45;100667.25;1048418;28;20048;-81